createdAt,value
2023-03-30T00:02:18.828Z,22.60
2023-03-30T00:04:52.794Z,23.25
2023-03-30T00:07:26.255Z,19.02
2023-03-30T00:10:01.277Z,21.30
2023-03-30T00:12:34.476Z,24.50
2023-03-30T00:15:10.770Z,22.77
2023-03-30T00:17:44.302Z,23.05
2023-03-30T00:20:18.563Z,22.87
2023-03-30T00:22:52.238Z,23.40
2023-03-30T00:25:25.248Z,21.42
2023-03-30T00:27:58.430Z,23.32
2023-03-30T00:30:32.325Z,24.30
2023-03-30T00:33:06.003Z,23.98
2023-03-30T00:35:39.792Z,22.07
2023-03-30T00:38:13.199Z,20.65
2023-03-30T00:40:53.519Z,15.93
2023-03-30T00:43:27.396Z,22.50
2023-03-30T00:46:01.580Z,19.12
2023-03-30T00:48:39.029Z,21.07
2023-03-30T00:51:14.201Z,19.15
2023-03-30T00:53:51.656Z,21.77
2023-03-30T00:56:29.021Z,20.90
2023-03-30T00:59:04.366Z,20.48
2023-03-30T01:01:40.441Z,21.45
2023-03-30T01:04:14.499Z,23.47
2023-03-30T01:06:48.417Z,19.00
2023-03-30T01:09:22.783Z,22.60
2023-03-30T01:11:56.738Z,19.42
2023-03-30T01:14:30.611Z,23.20
2023-03-30T01:17:07.458Z,20.32
2023-03-30T01:20:07.751Z,21.00
2023-03-30T01:26:28.154Z,21.05
2023-03-30T01:29:06.347Z,16.52
2023-03-30T01:32:15.883Z,14.70
2023-03-30T01:35:13.816Z,13.88
2023-03-30T01:38:14.128Z,13.55
2023-03-30T01:40:50.662Z,12.90
2023-03-30T01:43:28.851Z,11.97
2023-03-30T01:46:05.800Z,12.57
2023-03-30T01:48:44.699Z,12.07
2023-03-30T01:51:21.591Z,11.65
2023-03-30T01:53:58.317Z,11.80
2023-03-30T01:56:34.440Z,12.00
2023-03-30T01:59:12.174Z,12.53
2023-03-30T02:01:50.378Z,11.97
2023-03-30T02:04:26.152Z,12.25
2023-03-30T02:07:03.000Z,10.32
2023-03-30T02:09:38.848Z,10.08
2023-03-30T02:12:14.637Z,11.90
2023-03-30T02:14:51.514Z,12.03
2023-03-30T02:17:27.920Z,11.22
2023-03-30T02:20:08.652Z,11.55
2023-03-30T02:22:42.761Z,11.90
2023-03-30T02:25:17.519Z,11.88
2023-03-30T02:27:53.183Z,10.55
2023-03-30T02:30:26.806Z,12.23
2023-03-30T02:33:00.672Z,11.35
2023-03-30T02:35:42.174Z,9.33
2023-03-30T02:38:36.659Z,9.93
2023-03-30T02:41:17.273Z,9.18
2023-03-30T02:43:56.363Z,7.80
2023-03-30T02:46:38.872Z,8.28
2023-03-30T02:49:18.754Z,8.80
2023-03-30T02:52:05.007Z,8.85
2023-03-30T02:54:46.921Z,8.98
2023-03-30T02:57:31.700Z,10.50
2023-03-30T03:00:19.020Z,10.30
2023-03-30T03:02:55.505Z,9.23
2023-03-30T03:05:32.625Z,7.62
2023-03-30T03:08:10.815Z,5.58
2023-03-30T03:10:44.258Z,7.08
2023-03-30T03:13:20.186Z,4.67
2023-03-30T03:15:56.486Z,5.22
2023-03-30T03:18:32.170Z,5.53
2023-03-30T03:21:06.239Z,5.95
2023-03-30T03:23:41.402Z,6.22
2023-03-30T03:26:15.623Z,5.55
2023-03-30T03:28:49.185Z,5.58
2023-03-30T03:31:24.535Z,6.33
2023-03-30T03:33:58.016Z,5.95
2023-03-30T03:36:33.535Z,5.92
2023-03-30T03:39:08.248Z,6.78
2023-03-30T03:41:41.769Z,5.87
2023-03-30T03:44:15.557Z,5.80
2023-03-30T03:46:49.333Z,5.85
2023-03-30T03:49:23.235Z,6.70
2023-03-30T03:51:56.480Z,5.87
2023-03-30T03:54:30.442Z,6.12
2023-03-30T03:57:05.797Z,7.10
2023-03-30T03:59:39.037Z,6.72
2023-03-30T04:02:12.498Z,6.72
2023-03-30T04:04:46.082Z,6.42
2023-03-30T04:07:21.620Z,7.15
2023-03-30T04:09:54.760Z,6.65
2023-03-30T04:12:31.476Z,6.37
2023-03-30T04:15:13.412Z,7.58
2023-03-30T04:17:52.929Z,7.72
2023-03-30T04:20:33.868Z,7.22
2023-03-30T04:23:19.353Z,7.40
2023-03-30T04:31:28.786Z,6.90
2023-03-30T04:34:09.798Z,6.00
2023-03-30T04:36:49.815Z,6.85
2023-03-30T04:39:31.317Z,8.13
2023-03-30T04:42:27.007Z,6.90
2023-03-30T04:45:21.762Z,6.90
2023-03-30T04:48:14.977Z,7.00
2023-03-30T04:51:06.855Z,6.30
2023-03-30T04:53:58.400Z,5.75
2023-03-30T04:56:42.883Z,6.60
2023-03-30T04:59:18.213Z,6.50
2023-03-30T05:02:10.253Z,7.55
2023-03-30T05:05:01.939Z,6.92
2023-03-30T05:07:54.006Z,6.60
2023-03-30T05:10:36.201Z,6.53
2023-03-30T05:13:11.498Z,6.20
2023-03-30T05:15:59.461Z,6.60
2023-03-30T05:18:51.807Z,8.40
2023-03-30T05:21:43.707Z,10.05
2023-03-30T05:24:19.318Z,8.40
2023-03-30T05:27:12.246Z,7.92
2023-03-30T05:29:47.443Z,7.47
2023-03-30T05:32:25.427Z,6.70
2023-03-30T05:35:10.584Z,5.92
2023-03-30T05:37:55.368Z,5.80
2023-03-30T05:40:33.240Z,5.50
2023-03-30T05:46:08.418Z,4.50
2023-03-30T05:48:46.735Z,3.98
2023-03-30T05:51:33.155Z,4.03
2023-03-30T05:54:24.436Z,4.17
2023-03-30T05:57:11.349Z,3.98
2023-03-30T05:59:47.579Z,3.95
2023-03-30T06:02:27.525Z,5.53
2023-03-30T06:05:03.344Z,4.00
2023-03-30T06:07:37.592Z,5.20
2023-03-30T06:10:13.852Z,4.72
2023-03-30T06:12:47.812Z,4.53
2023-03-30T06:15:28.918Z,4.72
2023-03-30T06:18:10.160Z,5.10
2023-03-30T06:20:47.496Z,4.87
2023-03-30T06:23:21.471Z,5.97
2023-03-30T06:25:55.915Z,3.95
2023-03-30T06:28:31.327Z,4.22
2023-03-30T06:31:10.335Z,3.90
2023-03-30T06:33:44.477Z,4.45
2023-03-30T06:36:19.944Z,3.40
2023-03-30T06:38:54.236Z,5.22
2023-03-30T06:41:28.452Z,3.35
2023-03-30T06:44:01.856Z,3.80
2023-03-30T06:46:36.735Z,4.85
2023-03-30T06:49:13.059Z,4.78
2023-03-30T06:51:51.460Z,4.35
2023-03-30T06:54:25.067Z,4.25
2023-03-30T06:57:00.164Z,4.37
2023-03-30T06:59:35.135Z,4.12
2023-03-30T07:02:16.766Z,4.37
2023-03-30T07:04:52.093Z,3.27
2023-03-30T07:07:34.949Z,4.28
2023-03-30T07:10:11.180Z,3.90
2023-03-30T07:12:45.092Z,3.62
2023-03-30T07:15:18.760Z,4.30
2023-03-30T07:17:53.417Z,4.00
2023-03-30T07:20:27.483Z,3.00
2023-03-30T07:23:06.107Z,3.70
2023-03-30T07:25:40.227Z,4.22
2023-03-30T07:28:16.464Z,2.60
2023-03-30T07:30:51.853Z,3.92
2023-03-30T07:33:27.506Z,3.45
2023-03-30T07:36:01.105Z,3.83
2023-03-30T07:38:35.267Z,2.85
2023-03-30T07:41:13.827Z,3.60
2023-03-30T07:43:47.900Z,3.60
2023-03-30T07:46:21.995Z,4.00
2023-03-30T07:48:57.775Z,3.52
2023-03-30T07:51:31.816Z,3.95
2023-03-30T07:54:07.359Z,3.45
2023-03-30T07:56:44.848Z,2.37
2023-03-30T07:59:19.324Z,2.30
2023-03-30T08:01:54.774Z,2.60
2023-03-30T08:04:44.113Z,2.95
2023-03-30T08:07:18.933Z,3.60
2023-03-30T08:09:53.007Z,2.83
2023-03-30T08:12:27.339Z,3.17
2023-03-30T08:15:01.162Z,2.70
2023-03-30T08:17:35.007Z,3.30
2023-03-30T08:20:11.601Z,3.08
2023-03-30T08:22:45.755Z,3.02
2023-03-30T08:25:19.715Z,2.08
2023-03-30T08:27:53.052Z,2.02
2023-03-30T08:30:27.292Z,1.70
2023-03-30T08:33:01.250Z,1.60
2023-03-30T08:35:34.854Z,1.50
2023-03-30T08:38:07.915Z,1.92
2023-03-30T08:40:43.140Z,1.72
2023-03-30T08:43:29.545Z,1.65
2023-03-30T08:46:04.154Z,1.42
2023-03-30T08:48:40.461Z,1.20
2023-03-30T08:51:19.949Z,1.80
2023-03-30T08:53:57.687Z,2.35
2023-03-30T08:56:33.139Z,1.92
2023-03-30T08:59:11.680Z,1.72
2023-03-30T09:01:48.714Z,1.90
2023-03-30T09:04:27.359Z,2.72
2023-03-30T09:07:03.587Z,1.15
2023-03-30T09:09:40.796Z,1.82
2023-03-30T09:12:19.635Z,2.30
2023-03-30T09:14:56.336Z,1.98
2023-03-30T09:17:33.430Z,2.30
2023-03-30T09:20:13.226Z,2.33
2023-03-30T09:22:48.796Z,1.90
2023-03-30T09:25:26.146Z,1.67
2023-03-30T09:28:04.548Z,1.95
2023-03-30T09:30:41.746Z,1.72
2023-03-30T09:33:23.188Z,1.50
2023-03-30T09:36:08.015Z,1.50
2023-03-30T09:38:43.325Z,2.55
2023-03-30T09:41:39.272Z,1.67
2023-03-30T09:44:16.716Z,2.15
2023-03-30T09:46:50.802Z,2.30
2023-03-30T09:49:25.549Z,1.50
2023-03-30T09:52:04.368Z,1.62
2023-03-30T09:54:42.069Z,1.30
2023-03-30T09:57:31.381Z,1.15
2023-03-30T10:00:09.362Z,1.80
2023-03-30T10:02:46.260Z,1.60
2023-03-30T10:05:21.337Z,1.42
2023-03-30T10:07:58.477Z,1.85
2023-03-30T10:10:36.214Z,1.50
2023-03-30T10:15:45.026Z,1.42
2023-03-30T10:18:27.818Z,1.52
2023-03-30T10:21:05.838Z,1.67
2023-03-30T10:26:18.586Z,2.30
2023-03-30T10:28:55.957Z,2.42
2023-03-30T10:31:30.189Z,2.15
2023-03-30T10:34:05.747Z,1.62
2023-03-30T10:36:41.108Z,1.67
2023-03-30T10:39:18.458Z,1.98
2023-03-30T10:41:54.321Z,2.30
2023-03-30T10:44:29.975Z,1.45
2023-03-30T10:47:10.611Z,1.95
2023-03-30T10:49:48.348Z,2.15
2023-03-30T10:52:25.422Z,2.65
2023-03-30T10:55:01.683Z,2.83
2023-03-30T10:57:39.902Z,1.25
2023-03-30T11:00:24.284Z,1.92
2023-03-30T11:03:03.298Z,2.02
2023-03-30T11:05:40.504Z,2.80
2023-03-30T11:08:17.310Z,2.42
2023-03-30T11:10:54.132Z,2.50
2023-03-30T11:13:30.902Z,2.52
2023-03-30T11:16:08.132Z,2.58
2023-03-30T11:18:44.977Z,3.62
2023-03-30T11:21:21.527Z,3.30
2023-03-30T11:23:56.851Z,3.25
2023-03-30T11:26:35.255Z,2.70
2023-03-30T11:29:20.268Z,2.70
2023-03-30T11:32:00.264Z,2.62
2023-03-30T11:34:37.939Z,3.35
2023-03-30T11:37:15.044Z,3.52
2023-03-30T11:39:51.993Z,3.62
2023-03-30T11:42:28.368Z,3.47
2023-03-30T11:45:05.016Z,3.72
2023-03-30T11:47:45.491Z,3.75
2023-03-30T11:50:32.167Z,3.95
2023-03-30T11:53:17.109Z,3.90
2023-03-30T11:56:02.137Z,3.10
2023-03-30T11:58:38.748Z,2.58
2023-03-30T12:04:34.857Z,3.70
2023-03-30T12:07:12.717Z,3.37
2023-03-30T12:09:49.018Z,3.98
2023-03-30T12:12:26.099Z,4.33
2023-03-30T12:15:08.765Z,3.80
2023-03-30T12:17:51.503Z,3.65
2023-03-30T12:20:38.532Z,3.15
2023-03-30T12:23:26.483Z,3.75
2023-03-30T12:26:11.055Z,3.92
2023-03-30T12:31:24.478Z,3.83
2023-03-30T12:34:05.910Z,3.83
2023-03-30T12:36:41.187Z,3.95
2023-03-30T12:39:18.763Z,3.75
2023-03-30T12:41:57.000Z,3.15
2023-03-30T12:44:45.438Z,3.30
2023-03-30T12:47:47.270Z,3.22
2023-03-30T12:50:31.938Z,3.27
2023-03-30T12:53:13.306Z,3.35
2023-03-30T12:55:51.744Z,3.12
2023-03-30T12:58:43.081Z,3.00
2023-03-30T13:01:24.013Z,3.10
2023-03-30T13:03:59.634Z,3.12
2023-03-30T13:06:36.075Z,3.33
2023-03-30T13:09:32.224Z,4.33
2023-03-30T13:12:31.969Z,3.35
2023-03-30T13:15:26.066Z,4.00
2023-03-30T13:18:04.154Z,4.12
2023-03-30T13:20:39.741Z,4.97
2023-03-30T13:23:31.580Z,3.65
2023-03-30T13:26:08.903Z,2.70
2023-03-30T13:28:58.712Z,3.83
2023-03-30T13:31:47.808Z,4.20
2023-03-30T13:34:27.473Z,3.67
2023-03-30T13:37:04.922Z,3.50
2023-03-30T13:39:42.551Z,3.60
2023-03-30T13:42:23.762Z,4.25
2023-03-30T13:45:02.160Z,3.40
2023-03-30T13:47:46.257Z,3.72
2023-03-30T13:50:26.155Z,4.25
2023-03-30T13:53:01.711Z,3.22
2023-03-30T13:55:37.043Z,3.98
2023-03-30T13:58:13.422Z,3.58
2023-03-30T14:00:50.485Z,4.60
2023-03-30T14:03:36.296Z,5.37
2023-03-30T14:06:17.688Z,6.03
2023-03-30T14:08:53.591Z,4.47
2023-03-30T14:11:30.052Z,5.15
2023-03-30T14:14:05.506Z,6.42
2023-03-30T14:16:41.936Z,5.15
2023-03-30T14:19:19.659Z,5.20
2023-03-30T14:21:57.192Z,5.65
2023-03-30T14:24:33.104Z,5.42
2023-03-30T14:27:09.118Z,6.05
2023-03-30T14:29:48.599Z,5.40
2023-03-30T14:32:25.518Z,5.58
2023-03-30T14:35:00.720Z,5.78
2023-03-30T14:37:37.653Z,4.80
2023-03-30T14:40:17.549Z,4.87
2023-03-30T14:42:52.457Z,4.40
2023-03-30T14:45:26.763Z,5.47
2023-03-30T14:48:02.826Z,4.47
2023-03-30T14:50:37.866Z,4.17
2023-03-30T14:53:12.703Z,6.50
2023-03-30T14:55:47.561Z,7.10
2023-03-30T14:58:21.887Z,6.78
2023-03-30T15:00:59.017Z,7.17
2023-03-30T15:03:36.634Z,8.78
2023-03-30T15:06:14.434Z,6.42
2023-03-30T15:11:58.108Z,5.72
2023-03-30T15:14:41.838Z,6.42
2023-03-30T15:17:20.089Z,6.03
2023-03-30T15:19:56.963Z,7.20
2023-03-30T15:22:57.033Z,6.65
2023-03-30T15:25:35.659Z,6.08
2023-03-30T15:28:12.421Z,5.50
2023-03-30T15:30:47.724Z,5.45
2023-03-30T15:33:28.114Z,5.78
2023-03-30T15:36:06.269Z,6.53
2023-03-30T15:38:46.928Z,6.10
2023-03-30T15:41:23.193Z,5.47
2023-03-30T15:44:02.717Z,5.45
2023-03-30T15:46:37.313Z,4.83
2023-03-30T15:49:13.638Z,4.08
2023-03-30T15:51:49.572Z,5.95
2023-03-30T15:54:26.298Z,4.90
2023-03-30T15:57:04.578Z,5.47
2023-03-30T15:59:40.945Z,4.85
2023-03-30T16:02:19.011Z,4.50
2023-03-30T16:04:54.543Z,4.45
2023-03-30T16:07:32.448Z,5.47
2023-03-30T16:10:07.400Z,3.25
2023-03-30T16:12:43.798Z,3.42
2023-03-30T16:15:47.701Z,4.35
2023-03-30T16:18:21.777Z,3.75
2023-03-30T16:20:55.792Z,5.20
2023-03-30T16:23:29.232Z,6.60
2023-03-30T16:26:03.335Z,7.10
2023-03-30T16:28:42.139Z,5.42
2023-03-30T16:31:18.835Z,5.85
2023-03-30T16:36:25.765Z,6.33
2023-03-30T16:38:59.153Z,6.58
2023-03-30T16:41:32.967Z,6.50
2023-03-30T16:44:06.201Z,5.85
2023-03-30T16:46:42.442Z,6.05
2023-03-30T16:49:17.211Z,6.67
2023-03-30T16:51:51.665Z,6.03
2023-03-30T16:54:31.064Z,7.58
2023-03-30T16:57:01.656Z,6.17
2023-03-30T16:59:35.979Z,6.15
2023-03-30T17:02:15.876Z,4.85
2023-03-30T17:04:47.419Z,4.78
2023-03-30T17:07:21.210Z,6.08
2023-03-30T17:09:54.789Z,6.20
2023-03-30T17:12:28.380Z,4.92
2023-03-30T17:15:02.087Z,7.00
2023-03-30T17:17:35.331Z,6.00
2023-03-30T17:20:25.003Z,5.78
2023-03-30T17:22:58.448Z,4.30
2023-03-30T17:25:32.440Z,7.08
2023-03-30T17:28:07.958Z,6.67
2023-03-30T17:30:42.672Z,6.08
2023-03-30T17:33:17.064Z,5.28
2023-03-30T17:35:52.722Z,5.33
2023-03-30T17:38:27.310Z,4.40
2023-03-30T17:41:01.424Z,5.65
2023-03-30T17:43:35.409Z,5.92
2023-03-30T17:46:09.402Z,5.47
2023-03-30T17:48:42.818Z,6.45
2023-03-30T17:51:16.337Z,6.65
2023-03-30T17:53:50.396Z,4.53
2023-03-30T17:56:25.976Z,3.27
2023-03-30T17:59:04.186Z,4.75
2023-03-30T18:01:39.016Z,3.77
2023-03-30T18:04:12.984Z,3.87
2023-03-30T18:06:49.145Z,5.08
2023-03-30T18:09:22.990Z,5.25
2023-03-30T18:11:56.174Z,4.20
2023-03-30T18:14:29.560Z,4.87
2023-03-30T18:17:06.792Z,4.55
2023-03-30T18:19:38.131Z,3.85
2023-03-30T18:22:11.600Z,5.72
2023-03-30T18:24:45.222Z,3.90
2023-03-30T18:27:18.933Z,3.30
2023-03-30T18:29:52.867Z,3.83
2023-03-30T18:32:37.024Z,3.95
2023-03-30T18:35:02.127Z,4.83
2023-03-30T18:37:35.872Z,5.08
2023-03-30T18:40:20.253Z,5.22
2023-03-30T18:42:54.901Z,4.62
2023-03-30T18:45:30.492Z,3.90
2023-03-30T18:48:04.450Z,4.33
2023-03-30T18:50:39.815Z,4.87
2023-03-30T18:53:14.898Z,4.22
2023-03-30T18:55:50.561Z,4.40
2023-03-30T18:58:26.409Z,4.47
2023-03-30T19:01:01.013Z,5.08
2023-03-30T19:03:34.887Z,4.25
2023-03-30T19:06:11.876Z,4.40
2023-03-30T19:08:45.387Z,4.37
2023-03-30T19:11:22.350Z,4.78
2023-03-30T19:13:56.162Z,4.90
2023-03-30T19:16:29.874Z,4.30
2023-03-30T19:19:03.372Z,4.55
2023-03-30T19:21:36.846Z,4.95
2023-03-30T19:24:12.261Z,5.08
2023-03-30T19:26:45.730Z,5.10
2023-03-30T19:29:19.391Z,4.95
2023-03-30T19:31:54.774Z,5.03
2023-03-30T19:34:28.622Z,4.50
2023-03-30T19:37:02.221Z,5.15
2023-03-30T19:39:35.753Z,4.72
2023-03-30T19:42:09.425Z,4.50
2023-03-30T19:44:42.965Z,4.35
2023-03-30T19:47:16.581Z,2.47
2023-03-30T19:49:50.023Z,4.10
2023-03-30T19:52:23.545Z,4.78
2023-03-30T19:54:57.006Z,4.53
2023-03-30T19:57:30.505Z,5.10
2023-03-30T20:00:16.534Z,4.20
2023-03-30T20:02:56.670Z,4.40
2023-03-30T20:05:30.578Z,4.92
2023-03-30T20:08:13.674Z,4.60
2023-03-30T20:10:39.786Z,4.03
2023-03-30T20:13:13.813Z,4.00
2023-03-30T20:15:48.216Z,4.55
2023-03-30T20:18:22.856Z,5.50
2023-03-30T20:20:56.841Z,4.12
2023-03-30T20:23:30.430Z,4.40
2023-03-30T20:26:05.458Z,4.70
2023-03-30T20:28:39.294Z,4.72
2023-03-30T20:31:13.800Z,4.53
2023-03-30T20:33:47.446Z,4.45
2023-03-30T20:36:21.911Z,4.30
2023-03-30T20:38:57.267Z,4.58
2023-03-30T20:41:32.566Z,4.15
2023-03-30T20:44:08.528Z,4.42
2023-03-30T20:46:43.560Z,4.62
2023-03-30T20:49:17.322Z,4.62
2023-03-30T20:51:51.664Z,4.37
2023-03-30T20:54:25.109Z,4.75
2023-03-30T20:56:58.686Z,4.40
2023-03-30T21:02:05.965Z,4.70
2023-03-30T21:04:39.520Z,4.65
2023-03-30T21:07:13.426Z,3.92
2023-03-30T21:09:47.430Z,4.62
2023-03-30T21:12:21.112Z,4.62
2023-03-30T21:14:54.668Z,4.62
2023-03-30T21:17:28.100Z,3.87
2023-03-30T21:20:01.733Z,4.17
2023-03-30T21:22:35.832Z,4.47
2023-03-30T21:25:12.786Z,4.60
2023-03-30T21:27:46.309Z,4.53
2023-03-30T21:30:20.063Z,4.65
2023-03-30T21:32:53.641Z,5.25
2023-03-30T21:35:27.576Z,4.58
2023-03-30T21:38:03.890Z,4.40
2023-03-30T21:40:36.649Z,4.92
2023-03-30T21:43:10.344Z,5.10
2023-03-30T21:45:43.696Z,5.00
2023-03-30T21:48:17.131Z,4.97
2023-03-30T21:50:51.235Z,5.08
2023-03-30T21:53:24.948Z,4.70
2023-03-30T21:55:59.180Z,5.45
2023-03-30T21:58:32.567Z,5.42
2023-03-30T22:01:17.766Z,5.25
2023-03-30T22:03:43.331Z,5.33
2023-03-30T22:06:17.690Z,5.08
2023-03-30T22:08:51.892Z,5.70
2023-03-30T22:11:26.717Z,5.53
2023-03-30T22:14:00.153Z,6.10
2023-03-30T22:16:35.187Z,5.28
2023-03-30T22:19:08.606Z,4.12
2023-03-30T22:21:42.027Z,4.60
2023-03-30T22:24:17.132Z,4.90
2023-03-30T22:26:52.677Z,3.45
2023-03-30T22:29:26.339Z,4.03
2023-03-30T22:31:59.991Z,4.47
2023-03-30T22:34:33.865Z,4.17
2023-03-30T22:37:07.686Z,3.92
2023-03-30T22:39:41.437Z,3.52
2023-03-30T22:42:14.806Z,3.80
2023-03-30T22:44:48.202Z,3.20
2023-03-30T22:47:21.565Z,3.92
2023-03-30T22:49:55.021Z,3.70
2023-03-30T22:52:28.429Z,3.85
2023-03-30T22:55:01.616Z,3.95
2023-03-30T22:57:35.540Z,3.80
2023-03-30T23:00:11.954Z,3.80
2023-03-30T23:02:45.979Z,3.92
2023-03-30T23:05:21.448Z,4.65
2023-03-30T23:07:55.039Z,4.45
2023-03-30T23:10:30.722Z,4.05
2023-03-30T23:13:04.404Z,3.92
2023-03-30T23:15:38.042Z,4.78
2023-03-30T23:18:12.303Z,5.12
2023-03-30T23:20:46.889Z,5.15
2023-03-30T23:23:21.085Z,4.50
2023-03-30T23:25:55.168Z,5.53
2023-03-30T23:28:28.307Z,3.98
2023-03-30T23:31:02.918Z,4.75
2023-03-30T23:33:36.274Z,4.30
2023-03-30T23:36:13.923Z,4.75
2023-03-30T23:38:48.105Z,4.10
2023-03-30T23:41:22.724Z,4.37
2023-03-30T23:43:56.446Z,3.72
2023-03-30T23:46:30.217Z,4.05
2023-03-30T23:49:04.240Z,4.80
2023-03-30T23:51:37.889Z,3.90
2023-03-30T23:54:12.000Z,3.80
2023-03-30T23:56:47.037Z,3.72
2023-03-30T23:59:20.692Z,4.00
